Time;durP1;ratioP1;P1;durP2;ratioP2;P2;SDS_P1;SDS_P2;PMS_P1;PMS_P2;Temp;Humidity;BMP_temperature;BMP_pressure;BME280_temperature;BME280_humidity;BME280_pressure;Samples;Min_cycle;Max_cycle;Signal;HPM_P1;HPM_P2
2023/01/21 00:00:49;;;;;;;11.30;9.80;;;1.20;99.90;;;;;;5091280;28;20193;-78
2023/01/21 00:03:15;;;;;;;13.83;8.47;;;1.20;99.90;;;;;;5073324;28;20172;-78
2023/01/21 00:05:41;;;;;;;12.00;8.23;;;1.20;99.90;;;;;;5073183;28;20171;-78
2023/01/21 00:08:06;;;;;;;14.83;9.27;;;1.20;99.90;;;;;;5073552;28;20578;-78
2023/01/21 00:10:32;;;;;;;10.57;8.30;;;1.20;99.90;;;;;;5090740;28;20203;-78
2023/01/21 00:12:58;;;;;;;12.90;9.77;;;1.20;99.90;;;;;;5073092;28;20188;-79
2023/01/21 00:15:24;;;;;;;13.87;8.30;;;1.20;99.90;;;;;;5091403;28;20605;-79
2023/01/21 00:17:52;;;;;;;11.60;8.13;;;1.10;99.90;;;;;;5073210;28;20707;-79
2023/01/21 00:20:17;;;;;;;11.10;7.70;;;1.10;99.90;;;;;;5091205;28;20172;-79
2023/01/21 00:22:43;;;;;;;14.10;8.10;;;1.10;99.90;;;;;;5096029;28;20172;-79
2023/01/21 00:25:09;;;;;;;12.80;7.90;;;1.10;99.90;;;;;;5073507;28;20167;-79
2023/01/21 00:27:34;;;;;;;13.03;9.00;;;1.10;99.90;;;;;;5074223;28;20560;-78
2023/01/21 00:30:00;;;;;;;14.07;10.10;;;1.10;99.90;;;;;;5092514;28;20176;-79
2023/01/21 00:32:27;;;;;;;11.30;8.63;;;1.10;99.90;;;;;;5072833;28;20577;-79
2023/01/21 00:34:53;;;;;;;11.33;8.20;;;1.00;99.90;;;;;;5073842;28;20221;-79
2023/01/21 00:37:18;;;;;;;12.07;8.43;;;1.00;99.90;;;;;;5092862;28;20580;-79
2023/01/21 00:39:44;;;;;;;14.80;9.30;;;1.00;99.90;;;;;;5073625;28;21392;-79
2023/01/21 00:42:10;;;;;;;13.60;9.90;;;1.00;99.90;;;;;;5091074;28;20185;-79
2023/01/21 00:44:37;;;;;;;15.13;10.05;;;1.00;99.90;;;;;;5072979;28;20176;-79
2023/01/21 00:47:04;;;;;;;13.65;9.35;;;1.00;99.90;;;;;;5090435;28;20239;-79
2023/01/21 00:49:30;;;;;;;12.30;7.65;;;1.00;99.90;;;;;;5056149;28;20267;-79
2023/01/21 00:51:56;;;;;;;18.27;9.98;;;1.00;99.90;;;;;;5089965;28;20305;-79
2023/01/21 00:54:22;;;;;;;14.73;9.63;;;0.90;99.90;;;;;;5072532;28;20180;-79
2023/01/21 00:56:48;;;;;;;16.13;9.02;;;0.90;99.90;;;;;;5072336;28;20203;-78
2023/01/21 00:59:14;;;;;;;13.80;7.90;;;0.90;99.90;;;;;;5073495;28;20674;-79
2023/01/21 01:01:40;;;;;;;10.43;8.23;;;0.90;99.90;;;;;;5074109;28;20244;-78
2023/01/21 01:04:05;;;;;;;14.33;9.33;;;0.90;99.90;;;;;;5055548;28;20171;-78
2023/01/21 01:06:32;;;;;;;12.43;8.80;;;0.90;99.90;;;;;;5072082;28;20697;-79
2023/01/21 01:08:57;;;;;;;10.82;7.60;;;0.90;99.90;;;;;;5072039;28;20689;-79
2023/01/21 01:11:25;;;;;;;12.17;8.23;;;0.90;99.90;;;;;;5089882;28;20270;-78
2023/01/21 01:13:54;;;;;;;12.38;7.90;;;0.90;99.90;;;;;;5072171;28;20663;-78
2023/01/21 01:16:21;;;;;;;10.55;8.05;;;0.90;99.90;;;;;;5090026;28;20192;-78
2023/01/21 01:18:47;;;;;;;11.13;8.18;;;0.90;99.90;;;;;;5055263;28;20183;-78
2023/01/21 01:21:16;;;;;;;8.10;7.05;;;0.90;99.90;;;;;;5071370;28;20711;-78
2023/01/21 01:23:43;;;;;;;10.75;7.63;;;0.90;99.90;;;;;;5071731;28;20236;-78
2023/01/21 01:26:12;;;;;;;9.65;6.82;;;0.90;99.90;;;;;;5071952;28;20303;-79
2023/01/21 01:28:38;;;;;;;10.98;7.65;;;0.90;99.90;;;;;;5071847;28;20615;-79
2023/01/21 01:31:06;;;;;;;9.20;6.35;;;0.80;99.90;;;;;;5089572;28;20164;-78
2023/01/21 01:33:33;;;;;;;10.57;7.90;;;0.80;99.90;;;;;;5071970;28;20167;-79
2023/01/21 01:36:03;;;;;;;13.02;8.05;;;0.80;99.90;;;;;;5089934;28;20241;-79
2023/01/21 01:38:29;;;;;;;8.45;6.63;;;0.80;99.90;;;;;;5093478;28;20176;-79
2023/01/21 01:40:55;;;;;;;10.00;7.03;;;0.80;99.90;;;;;;5089527;28;20531;-79
2023/01/21 01:43:22;;;;;;;10.95;7.35;;;0.80;99.90;;;;;;5089596;28;20687;-78
2023/01/21 01:45:49;;;;;;;9.80;7.85;;;0.70;99.90;;;;;;5071312;28;20535;-78
2023/01/21 01:48:30;;;;;;;12.45;7.38;;;0.70;99.90;;;;;;5071690;28;20341;-79
2023/01/21 01:51:01;;;;;;;9.20;6.80;;;0.70;99.90;;;;;;5070938;28;20170;-79
2023/01/21 01:53:29;;;;;;;12.73;7.85;;;0.70;99.90;;;;;;5089660;28;20279;-78
2023/01/21 01:55:56;;;;;;;9.20;7.00;;;0.70;99.90;;;;;;5071791;28;20229;-79
2023/01/21 01:58:22;;;;;;;10.35;7.25;;;0.70;99.90;;;;;;5089863;28;20167;-78
2023/01/21 02:00:48;;;;;;;10.03;6.80;;;0.70;99.90;;;;;;5070720;28;20175;-78
2023/01/21 02:06:01;;;;;;;11.23;6.88;;;0.70;99.90;;;;;;5051073;28;20187;-79
2023/01/21 02:08:28;;;;;;;11.05;6.55;;;0.70;99.90;;;;;;5051267;28;20614;-79
2023/01/21 02:10:55;;;;;;;11.63;7.78;;;0.70;99.90;;;;;;5051373;28;20218;-78
2023/01/21 02:13:26;;;;;;;11.77;7.75;;;0.70;99.90;;;;;;5034887;28;20165;-78
2023/01/21 02:15:58;;;;;;;10.25;6.80;;;0.70;99.90;;;;;;5053935;28;20168;-74
2023/01/21 02:18:28;;;;;;;10.45;7.05;;;0.70;99.90;;;;;;5069304;28;20187;-73
2023/01/21 02:21:31;;;;;;;10.93;7.07;;;0.60;99.90;;;;;;5034420;28;20621;-74
2023/01/21 02:24:16;;;;;;;12.05;6.80;;;0.60;99.90;;;;;;5051351;28;20175;-73
2023/01/21 02:26:50;;;;;;;11.38;7.55;;;0.60;99.90;;;;;;5062172;28;20207;-73
2023/01/21 02:29:46;;;;;;;10.20;5.68;;;0.60;99.90;;;;;;5089725;28;20163;-74
2023/01/21 02:32:38;;;;;;;8.93;6.00;;;0.60;99.90;;;;;;5071121;28;20199;-74
2023/01/21 02:35:11;;;;;;;8.82;6.55;;;0.60;99.90;;;;;;5089633;28;20523;-74
2023/01/21 02:37:46;;;;;;;9.32;6.10;;;0.60;99.90;;;;;;5071108;28;20275;-74
2023/01/21 02:40:48;;;;;;;10.63;7.35;;;0.60;99.90;;;;;;5054425;28;20175;-74
2023/01/21 02:43:45;;;;;;;12.55;7.28;;;0.50;99.90;;;;;;5050867;28;20179;-74
2023/01/21 02:46:21;;;;;;;10.68;7.10;;;0.50;99.90;;;;;;5071144;28;20188;-74
2023/01/21 02:48:57;;;;;;;9.32;6.45;;;0.60;99.90;;;;;;5089070;28;20206;-74
2023/01/21 02:51:23;;;;;;;8.25;5.60;;;0.50;99.90;;;;;;5089487;28;20220;-74
2023/01/21 02:53:49;;;;;;;10.30;6.30;;;0.50;99.90;;;;;;5073979;28;20258;-74
2023/01/21 02:56:18;;;;;;;9.10;6.37;;;0.50;99.90;;;;;;5089015;28;20738;-74
2023/01/21 02:58:56;;;;;;;8.82;6.90;;;0.50;99.90;;;;;;5067279;28;20180;-74
2023/01/21 03:01:44;;;;;;;10.77;6.93;;;0.50;99.90;;;;;;5088162;28;20270;-73
2023/01/21 03:04:57;;;;;;;10.00;6.60;;;0.50;99.90;;;;;;5070614;28;20550;-73
2023/01/21 03:07:33;;;;;;;7.80;5.68;;;0.50;99.90;;;;;;5088276;28;20227;-73
2023/01/21 03:10:12;;;;;;;10.55;6.05;;;0.50;99.90;;;;;;5069854;28;20504;-74
2023/01/21 03:12:58;;;;;;;10.23;6.38;;;0.50;99.90;;;;;;5070225;28;20187;-74
2023/01/21 03:18:39;;;;;;;8.57;5.82;;;0.40;99.90;;;;;;5074371;28;20183;-74
2023/01/21 03:21:07;;;;;;;9.75;6.95;;;0.40;99.90;;;;;;5056939;28;20182;-73
2023/01/21 03:23:37;;;;;;;12.25;6.53;;;0.40;99.90;;;;;;5074395;28;20199;-73
2023/01/21 03:26:05;;;;;;;12.85;7.95;;;0.40;99.90;;;;;;5073553;28;20198;-73
2023/01/21 03:28:35;;;;;;;11.27;7.35;;;0.30;99.90;;;;;;5092275;28;20196;-73
2023/01/21 03:31:11;;;;;;;8.80;7.38;;;0.30;99.90;;;;;;5059949;28;20238;-74
2023/01/21 03:33:41;;;;;;;10.30;7.32;;;0.40;99.90;;;;;;5074196;28;20271;-74
2023/01/21 03:36:25;;;;;;;11.15;7.65;;;0.30;99.90;;;;;;5056847;28;20265;-73
2023/01/21 03:38:54;;;;;;;11.27;7.57;;;0.30;99.90;;;;;;5074270;28;20695;-73
2023/01/21 03:41:24;;;;;;;12.88;7.90;;;0.30;99.90;;;;;;5091042;28;20172;-73
2023/01/21 03:43:50;;;;;;;8.75;6.47;;;0.30;99.90;;;;;;5073892;28;20286;-74
2023/01/21 03:46:25;;;;;;;10.32;6.97;;;0.30;99.90;;;;;;5073541;28;20192;-72
2023/01/21 03:48:58;;;;;;;11.63;6.60;;;0.30;99.90;;;;;;5091994;28;20199;-74
2023/01/21 03:51:33;;;;;;;12.48;7.50;;;0.30;99.90;;;;;;5056183;28;20180;-74
2023/01/21 03:53:59;;;;;;;9.77;7.18;;;0.30;99.90;;;;;;5073815;28;20585;-75
2023/01/21 03:56:26;;;;;;;13.03;8.07;;;0.30;99.90;;;;;;5073376;28;20192;-75
2023/01/21 03:58:52;;;;;;;13.80;7.93;;;0.30;99.90;;;;;;5091626;28;20581;-74
2023/01/21 04:01:18;;;;;;;11.55;7.45;;;0.20;99.90;;;;;;5072988;28;20183;-74
2023/01/21 04:03:44;;;;;;;11.88;7.35;;;0.20;99.90;;;;;;5091591;28;20167;-74
2023/01/21 04:06:14;;;;;;;12.23;8.30;;;0.20;99.90;;;;;;5091541;28;20551;-74
2023/01/21 04:08:40;;;;;;;14.85;8.07;;;0.20;99.90;;;;;;5075980;28;20637;-73
2023/01/21 04:11:06;;;;;;;17.90;9.70;;;0.20;99.90;;;;;;5090900;28;20171;-74
2023/01/21 04:13:31;;;;;;;14.13;9.20;;;0.20;99.90;;;;;;5091111;28;20258;-74
2023/01/21 04:15:57;;;;;;;13.30;8.37;;;0.20;99.90;;;;;;5073246;28;20172;-74
2023/01/21 04:18:23;;;;;;;11.90;7.80;;;0.20;99.90;;;;;;5073098;28;20168;-74
2023/01/21 04:20:49;;;;;;;15.00;8.67;;;0.20;99.90;;;;;;5072728;28;20662;-73
2023/01/21 04:23:14;;;;;;;10.17;6.90;;;0.20;99.90;;;;;;5090729;28;21118;-74
2023/01/21 04:25:40;;;;;;;11.50;7.43;;;0.20;99.90;;;;;;5090487;28;20627;-73
2023/01/21 04:28:06;;;;;;;10.80;7.37;;;0.20;99.90;;;;;;5072830;28;20207;-73
2023/01/21 04:30:31;;;;;;;10.10;7.50;;;0.10;99.90;;;;;;5090464;28;20171;-73
2023/01/21 04:32:57;;;;;;;11.80;7.30;;;0.10;99.90;;;;;;5090768;28;20565;-73
2023/01/21 04:35:23;;;;;;;9.40;6.93;;;0.10;99.90;;;;;;5090759;28;20171;-73
2023/01/21 04:37:48;;;;;;;15.10;7.60;;;0.10;99.90;;;;;;5090942;28;20272;-73
2023/01/21 04:40:14;;;;;;;9.70;7.23;;;0.10;99.90;;;;;;5090038;28;20180;-73
2023/01/21 04:42:41;;;;;;;10.80;7.03;;;0.10;99.90;;;;;;5055724;28;20167;-73
2023/01/21 04:45:07;;;;;;;11.55;7.00;;;0.00;99.90;;;;;;5076397;28;20179;-73
2023/01/21 04:47:33;;;;;;;11.63;7.05;;;0.00;99.90;;;;;;5072488;28;20314;-73
2023/01/21 04:49:59;;;;;;;10.87;7.13;;;0.00;99.90;;;;;;5090202;28;20239;-73
2023/01/21 04:52:24;;;;;;;12.23;8.10;;;0.00;99.90;;;;;;5090360;28;20221;-73
2023/01/21 04:54:50;;;;;;;10.20;7.07;;;0.00;99.90;;;;;;5055569;28;20531;-73
2023/01/21 04:57:16;;;;;;;13.43;8.20;;;0.00;99.90;;;;;;5090391;28;20191;-73
2023/01/21 04:59:42;;;;;;;12.47;7.90;;;0.00;99.90;;;;;;5089944;28;20167;-73
2023/01/21 05:02:07;;;;;;;12.03;7.97;;;0.00;99.90;;;;;;5089834;28;20176;-72
2023/01/21 05:04:33;;;;;;;9.27;6.97;;;0.00;99.90;;;;;;5072182;28;20225;-73
2023/01/21 05:06:59;;;;;;;15.03;8.50;;;0.00;99.90;;;;;;5090107;28;20577;-74
2023/01/21 05:09:24;;;;;;;12.70;8.67;;;-0.10;99.90;;;;;;5072030;28;20170;-73
2023/01/21 05:11:50;;;;;;;9.20;7.50;;;-0.10;99.90;;;;;;5089402;28;20168;-73
2023/01/21 05:14:16;;;;;;;12.30;7.47;;;-0.10;99.90;;;;;;5090434;28;20175;-72
2023/01/21 05:16:41;;;;;;;12.30;6.97;;;-0.10;99.90;;;;;;5071746;28;20290;-73
2023/01/21 05:19:07;;;;;;;9.40;7.20;;;-0.10;99.90;;;;;;5072059;28;20282;-72
2023/01/21 05:21:33;;;;;;;9.40;7.13;;;-0.10;99.90;;;;;;5091451;28;20174;-72
2023/01/21 05:23:58;;;;;;;10.50;7.30;;;-0.10;99.90;;;;;;5072550;28;20221;-72
2023/01/21 05:26:24;;;;;;;9.93;7.63;;;-0.10;99.90;;;;;;5089884;28;20199;-74
2023/01/21 05:28:50;;;;;;;9.83;6.80;;;-0.20;99.90;;;;;;5089527;28;20203;-74
2023/01/21 05:31:15;;;;;;;9.43;7.00;;;-0.20;99.90;;;;;;5089333;28;20160;-74
2023/01/21 05:33:44;;;;;;;11.50;7.57;;;-0.20;99.90;;;;;;5089528;28;20368;-73
2023/01/21 05:36:09;;;;;;;8.48;6.95;;;-0.20;99.90;;;;;;5071583;28;20195;-74
2023/01/21 05:38:35;;;;;;;11.87;7.63;;;-0.20;99.90;;;;;;5088743;28;20674;-74
2023/01/21 05:41:02;;;;;;;10.63;7.63;;;-0.20;99.90;;;;;;5071251;28;20171;-73
2023/01/21 05:43:29;;;;;;;9.30;7.15;;;-0.20;99.90;;;;;;5089544;28;20167;-74
2023/01/21 05:45:55;;;;;;;10.02;6.15;;;-0.20;99.90;;;;;;5089762;28;20167;-73
2023/01/21 05:48:21;;;;;;;9.88;6.20;;;-0.20;99.90;;;;;;5089376;28;20237;-74
2023/01/21 05:50:47;;;;;;;9.07;6.05;;;-0.20;99.90;;;;;;5089160;28;20171;-74
2023/01/21 05:53:13;;;;;;;10.30;6.53;;;-0.20;99.90;;;;;;5088959;28;20168;-74
2023/01/21 05:55:39;;;;;;;11.15;6.63;;;-0.20;99.90;;;;;;5071460;28;20206;-73
2023/01/21 05:58:05;;;;;;;9.10;6.57;;;-0.20;99.90;;;;;;5071505;28;20219;-73
2023/01/21 06:00:30;;;;;;;9.93;5.90;;;-0.20;99.90;;;;;;5074035;28;20175;-74
2023/01/21 06:02:59;;;;;;;8.63;6.00;;;-0.20;99.90;;;;;;5071313;28;20184;-74
2023/01/21 06:05:25;;;;;;;10.80;7.15;;;-0.20;99.90;;;;;;5088969;28;20271;-74
2023/01/21 06:07:50;;;;;;;9.00;6.90;;;-0.20;99.90;;;;;;5054475;28;20286;-73
2023/01/21 06:10:16;;;;;;;11.60;6.47;;;-0.20;99.90;;;;;;5070675;28;20176;-73
2023/01/21 06:12:42;;;;;;;9.60;6.50;;;-0.20;99.90;;;;;;5054447;28;20656;-73
2023/01/21 06:15:08;;;;;;;9.50;6.10;;;-0.20;99.90;;;;;;5054393;28;20182;-73
2023/01/21 06:17:36;;;;;;;9.05;6.07;;;-0.20;99.90;;;;;;5054609;28;20199;-73
2023/01/21 06:20:02;;;;;;;9.43;6.05;;;-0.20;99.90;;;;;;5070404;28;20175;-73
2023/01/21 06:22:28;;;;;;;10.87;6.10;;;-0.20;99.90;;;;;;5089008;28;20178;-73
2023/01/21 06:24:54;;;;;;;9.00;6.83;;;-0.20;99.90;;;;;;5071872;28;20613;-74
2023/01/21 06:27:19;;;;;;;8.90;7.23;;;-0.20;99.90;;;;;;5089388;28;20719;-74
2023/01/21 06:29:45;;;;;;;9.00;5.87;;;-0.20;99.90;;;;;;5089299;28;20167;-74
2023/01/21 06:32:11;;;;;;;12.80;7.43;;;-0.10;99.90;;;;;;5089087;28;20312;-74
2023/01/21 06:34:36;;;;;;;12.23;6.70;;;-0.20;99.90;;;;;;5089695;28;20163;-74
2023/01/21 06:37:02;;;;;;;9.97;6.93;;;-0.10;99.90;;;;;;5095734;28;20188;-73
2023/01/21 06:39:28;;;;;;;13.27;7.57;;;-0.10;99.90;;;;;;5072265;28;20183;-74
2023/01/21 06:41:53;;;;;;;12.17;8.63;;;-0.10;99.90;;;;;;5070898;28;20738;-74
2023/01/21 06:44:19;;;;;;;13.20;8.17;;;-0.10;99.90;;;;;;5071406;28;20180;-75
2023/01/21 06:46:45;;;;;;;10.00;6.97;;;-0.10;99.90;;;;;;5071237;28;20187;-74
2023/01/21 06:49:10;;;;;;;12.53;8.40;;;-0.10;99.90;;;;;;5073342;28;20527;-74
2023/01/21 06:51:36;;;;;;;12.77;7.67;;;-0.10;99.90;;;;;;5093238;28;20167;-73
2023/01/21 06:54:02;;;;;;;16.30;8.70;;;-0.10;99.90;;;;;;5093471;28;20647;-74
2023/01/21 06:56:28;;;;;;;11.93;8.03;;;-0.10;99.90;;;;;;5075263;28;20659;-74
2023/01/21 06:58:53;;;;;;;12.80;8.00;;;-0.10;99.90;;;;;;5074844;28;20184;-74
2023/01/21 07:01:19;;;;;;;12.10;7.43;;;-0.10;99.90;;;;;;5057924;28;20225;-73
2023/01/21 07:03:45;;;;;;;12.93;8.73;;;-0.10;99.90;;;;;;5075051;28;20178;-74
2023/01/21 07:06:11;;;;;;;12.80;8.70;;;-0.20;99.90;;;;;;5074961;28;20606;-73
2023/01/21 07:08:36;;;;;;;12.10;7.53;;;-0.20;99.90;;;;;;5092994;28;20195;-74
2023/01/21 07:11:02;;;;;;;10.13;7.60;;;-0.20;99.90;;;;;;5074533;28;20199;-74
2023/01/21 07:13:28;;;;;;;10.03;6.97;;;-0.20;99.90;;;;;;5073634;28;20542;-74
2023/01/21 07:15:59;;;;;;;9.90;7.37;;;-0.20;99.90;;;;;;5089572;28;20628;-74
2023/01/21 07:18:25;;;;;;;11.57;7.20;;;-0.20;99.90;;;;;;5054749;28;20188;-74
2023/01/21 07:20:50;;;;;;;10.33;7.60;;;-0.10;99.90;;;;;;5054572;28;20173;-74
2023/01/21 07:23:16;;;;;;;10.67;7.37;;;-0.20;99.90;;;;;;5054616;28;20188;-74
2023/01/21 07:25:42;;;;;;;12.67;7.73;;;-0.20;99.90;;;;;;5072357;28;20176;-74
2023/01/21 07:28:07;;;;;;;11.53;7.67;;;-0.20;99.90;;;;;;5072268;28;20192;-74
2023/01/21 07:30:33;;;;;;;15.13;7.87;;;-0.20;99.90;;;;;;5071931;28;20156;-74
2023/01/21 07:33:05;;;;;;;11.30;7.80;;;-0.20;99.90;;;;;;5054154;28;20187;-74
2023/01/21 07:35:31;;;;;;;14.25;8.98;;;-0.10;99.90;;;;;;5053760;28;20177;-74
2023/01/21 07:37:56;;;;;;;10.10;8.57;;;-0.10;99.90;;;;;;5053905;28;20195;-75
2023/01/21 07:40:22;;;;;;;15.53;9.60;;;-0.10;99.90;;;;;;5053286;28;20676;-75
2023/01/21 07:42:52;;;;;;;14.83;9.70;;;-0.10;99.90;;;;;;5071607;28;20211;-75
2023/01/21 07:45:19;;;;;;;12.90;9.38;;;0.00;99.90;;;;;;5053793;28;20215;-75
2023/01/21 07:47:44;;;;;;;11.27;7.90;;;0.00;99.90;;;;;;5053804;28;20207;-75
2023/01/21 07:50:10;;;;;;;12.30;8.83;;;0.00;99.90;;;;;;5053607;28;20541;-76
2023/01/21 07:52:36;;;;;;;14.68;9.55;;;0.00;99.90;;;;;;5075593;28;20164;-75
2023/01/21 07:55:03;;;;;;;13.05;9.95;;;0.10;99.90;;;;;;5053662;28;20255;-75
2023/01/21 07:57:28;;;;;;;15.45;9.40;;;0.10;99.90;;;;;;5071730;28;20857;-74
2023/01/21 07:59:54;;;;;;;12.37;8.70;;;0.10;99.90;;;;;;5052674;28;20172;-75
2023/01/21 08:02:23;;;;;;;10.38;9.18;;;0.10;99.90;;;;;;5070775;28;20194;-75
2023/01/21 08:04:49;;;;;;;13.00;9.53;;;0.20;99.90;;;;;;5055942;28;20199;-75
2023/01/21 08:07:14;;;;;;;12.60;9.30;;;0.20;99.90;;;;;;5055755;28;20650;-75
2023/01/21 08:09:40;;;;;;;14.15;8.48;;;0.20;99.90;;;;;;5061568;28;20226;-75
2023/01/21 08:12:07;;;;;;;11.63;9.07;;;0.30;99.90;;;;;;5091043;28;20192;-74
2023/01/21 08:14:33;;;;;;;10.63;8.68;;;0.30;99.90;;;;;;5061630;28;20192;-74
2023/01/21 08:16:59;;;;;;;11.50;9.70;;;0.40;99.90;;;;;;5037595;28;20748;-75
2023/01/21 08:19:26;;;;;;;10.00;7.25;;;0.40;99.90;;;;;;5058550;28;20180;-75
2023/01/21 08:21:51;;;;;;;14.80;9.95;;;0.40;99.90;;;;;;5047256;28;20205;-76
2023/01/21 08:24:17;;;;;;;16.03;9.47;;;0.50;99.90;;;;;;5073617;28;20545;-76
2023/01/21 08:26:43;;;;;;;13.47;10.10;;;0.50;99.90;;;;;;5091251;28;20722;-75
2023/01/21 08:29:09;;;;;;;15.87;10.53;;;0.50;99.90;;;;;;5059866;28;20581;-76
2023/01/21 08:31:34;;;;;;;16.60;10.00;;;0.60;99.90;;;;;;5072652;28;20565;-76
2023/01/21 08:34:00;;;;;;;15.60;11.48;;;0.60;99.90;;;;;;5066764;28;20164;-76
2023/01/21 08:36:27;;;;;;;15.48;10.35;;;0.60;99.90;;;;;;5052846;28;20196;-75
2023/01/21 08:39:04;;;;;;;14.67;10.53;;;0.70;99.90;;;;;;5072656;28;20184;-75
2023/01/21 08:41:31;;;;;;;16.30;10.45;;;0.70;99.90;;;;;;5082175;28;20266;-76
2023/01/21 08:43:56;;;;;;;14.75;11.38;;;0.80;99.90;;;;;;5070605;28;20183;-75
2023/01/21 08:46:22;;;;;;;15.10;9.83;;;0.80;99.90;;;;;;5053963;28;20209;-75
2023/01/21 08:48:48;;;;;;;16.13;10.90;;;0.90;99.90;;;;;;5090711;28;20214;-75
2023/01/21 08:51:13;;;;;;;15.63;11.30;;;1.00;99.90;;;;;;5072492;28;20172;-75
2023/01/21 08:53:39;;;;;;;19.80;13.33;;;1.00;99.90;;;;;;5090725;28;20207;-75
2023/01/21 08:56:05;;;;;;;18.97;14.03;;;1.10;99.90;;;;;;5090755;28;20199;-76
2023/01/21 08:58:31;;;;;;;18.83;12.50;;;1.10;99.90;;;;;;5068514;28;20188;-75
2023/01/21 09:00:57;;;;;;;16.60;12.52;;;1.20;99.90;;;;;;5070111;28;20658;-76
2023/01/21 09:03:24;;;;;;;23.80;16.50;;;1.30;99.90;;;;;;5070585;28;20263;-76
2023/01/21 09:05:50;;;;;;;17.52;13.65;;;1.30;99.90;;;;;;5036873;28;20587;-76
2023/01/21 09:08:17;;;;;;;15.00;11.50;;;1.40;99.90;;;;;;5074491;28;20196;-75
2023/01/21 09:11:00;;;;;;;21.17;15.13;;;1.50;99.90;;;;;;5052260;28;20175;-75
2023/01/21 09:13:37;;;;;;;18.42;12.85;;;1.60;99.90;;;;;;5052196;28;20172;-75
2023/01/21 09:16:12;;;;;;;18.98;12.75;;;1.70;99.90;;;;;;5035528;28;20790;-76
2023/01/21 09:18:38;;;;;;;19.40;14.38;;;1.90;99.90;;;;;;5052481;28;20183;-75
2023/01/21 09:21:05;;;;;;;21.10;12.93;;;2.00;99.90;;;;;;5069708;28;20156;-75
2023/01/21 09:23:33;;;;;;;20.35;13.55;;;2.10;99.90;;;;;;5070213;28;20173;-75
2023/01/21 09:26:02;;;;;;;17.10;11.50;;;2.20;99.90;;;;;;5069730;28;20207;-75
2023/01/21 09:28:29;;;;;;;18.63;13.55;;;2.30;99.90;;;;;;5070059;28;20243;-75
2023/01/21 09:31:00;;;;;;;20.45;14.80;;;2.40;99.90;;;;;;5051469;28;20599;-75
2023/01/21 09:33:28;;;;;;;21.83;15.15;;;2.50;99.90;;;;;;5069925;28;20168;-75
2023/01/21 09:35:55;;;;;;;22.02;13.45;;;2.60;99.90;;;;;;5051889;28;20229;-75
2023/01/21 09:38:22;;;;;;;16.48;12.15;;;2.70;99.90;;;;;;5069709;28;20207;-75
2023/01/21 09:40:48;;;;;;;14.35;11.68;;;2.90;99.90;;;;;;5069873;28;20183;-75
2023/01/21 09:43:35;;;;;;;16.33;12.38;;;2.90;99.90;;;;;;5071262;28;20179;-75
2023/01/21 09:46:04;;;;;;;16.95;12.15;;;3.10;99.90;;;;;;5070509;28;20191;-74
2023/01/21 09:48:36;;;;;;;15.27;11.52;;;3.10;99.90;;;;;;5069587;28;20211;-74
2023/01/21 09:51:12;;;;;;;18.73;12.30;;;3.20;99.90;;;;;;5070017;28;20172;-76
2023/01/21 09:53:46;;;;;;;17.63;12.52;;;3.40;99.90;;;;;;5052053;28;20168;-75
2023/01/21 09:56:42;;;;;;;17.42;13.38;;;3.40;99.90;;;;;;5069920;28;20227;-75
2023/01/21 09:59:17;;;;;;;13.98;10.73;;;3.50;99.90;;;;;;5031291;28;20195;-75
2023/01/21 10:01:43;;;;;;;16.98;12.95;;;3.60;99.90;;;;;;5051443;28;20180;-74
2023/01/21 10:04:21;;;;;;;20.10;13.98;;;3.70;99.90;;;;;;5051632;28;20168;-75
2023/01/21 10:07:02;;;;;;;15.23;11.75;;;3.80;99.90;;;;;;5069460;28;20180;-75
2023/01/21 10:09:46;;;;;;;15.98;11.25;;;3.80;99.90;;;;;;5069519;28;20176;-75
2023/01/21 10:12:43;;;;;;;20.45;14.30;;;3.90;99.90;;;;;;5068891;28;20210;-76
2023/01/21 10:15:35;;;;;;;18.90;13.30;;;4.00;99.90;;;;;;5089469;28;20191;-75
2023/01/21 10:18:09;;;;;;;22.52;14.55;;;4.00;99.90;;;;;;5076775;28;20278;-75
2023/01/21 10:20:49;;;;;;;17.42;13.30;;;4.00;99.90;;;;;;5068182;28;20274;-75
2023/01/21 10:23:30;;;;;;;18.80;13.93;;;4.10;99.90;;;;;;5054313;28;20171;-75
2023/01/21 10:25:59;;;;;;;20.70;13.38;;;4.20;99.90;;;;;;5076450;28;20172;-75
2023/01/21 10:28:29;;;;;;;17.05;13.10;;;4.30;99.90;;;;;;5058149;28;20677;-76
2023/01/21 10:31:08;;;;;;;17.17;12.90;;;4.30;99.90;;;;;;5041837;28;20297;-75
2023/01/21 10:33:33;;;;;;;17.20;12.45;;;4.30;99.90;;;;;;5076375;28;20183;-78
2023/01/21 10:36:30;;;;;;;20.87;14.87;;;4.30;99.90;;;;;;5057877;28;20168;-78
2023/01/21 10:39:11;;;;;;;17.85;15.30;;;4.30;99.90;;;;;;5076005;28;20168;-78
2023/01/21 10:41:55;;;;;;;20.92;15.40;;;4.40;99.90;;;;;;5076021;28;20195;-78
2023/01/21 10:44:30;;;;;;;22.95;16.77;;;4.40;99.90;;;;;;5075772;28;20164;-79
2023/01/21 10:46:55;;;;;;;19.75;14.20;;;4.30;99.90;;;;;;5057772;28;20556;-78
2023/01/21 10:50:04;;;;;;;18.87;14.30;;;4.30;99.90;;;;;;5088504;28;20168;-78
2023/01/21 10:52:45;;;;;;;18.38;12.68;;;4.30;99.90;;;;;;4977506;28;20174;-78
2023/01/21 10:55:44;;;;;;;17.38;13.55;;;4.20;99.90;;;;;;4993556;28;20177;-77
2023/01/21 10:58:19;;;;;;;16.13;13.93;;;4.20;99.90;;;;;;5032050;28;20422;-80
2023/01/21 11:00:47;;;;;;;19.83;14.35;;;4.20;99.90;;;;;;5055179;28;20221;-79
2023/01/21 11:03:22;;;;;;;17.10;12.77;;;4.20;99.90;;;;;;5058170;28;20703;-78
2023/01/21 11:05:48;;;;;;;18.45;14.30;;;4.20;99.90;;;;;;5077440;28;20175;-80
2023/01/21 11:08:21;;;;;;;18.90;12.73;;;4.20;99.90;;;;;;5095843;28;20195;-78
2023/01/21 11:10:52;;;;;;;17.80;11.60;;;4.20;99.90;;;;;;5095053;28;20580;-77
2023/01/21 11:13:17;;;;;;;14.32;11.52;;;4.20;99.90;;;;;;5095684;28;20183;-77
2023/01/21 11:15:52;;;;;;;13.37;10.43;;;4.30;99.90;;;;;;5071712;28;20176;-77
2023/01/21 11:18:31;;;;;;;15.48;10.75;;;4.30;99.90;;;;;;5069941;28;20186;-77
2023/01/21 11:21:01;;;;;;;13.50;10.23;;;4.30;99.90;;;;;;5095151;28;20236;-77
2023/01/21 11:23:33;;;;;;;15.07;10.68;;;4.40;99.90;;;;;;5075523;28;20203;-78
2023/01/21 11:26:01;;;;;;;10.75;8.32;;;4.40;99.90;;;;;;5075344;28;20607;-77
2023/01/21 11:28:30;;;;;;;17.17;11.63;;;4.40;99.90;;;;;;5075087;28;20265;-77
2023/01/21 11:31:23;;;;;;;11.50;9.15;;;4.40;99.90;;;;;;5075272;28;20168;-77
2023/01/21 11:33:49;;;;;;;10.40;8.20;;;4.40;99.90;;;;;;5074941;28;20180;-76
2023/01/21 11:36:17;;;;;;;11.73;8.30;;;4.50;99.90;;;;;;5074162;28;20196;-77
2023/01/21 11:38:46;;;;;;;11.85;7.68;;;4.40;99.90;;;;;;5074025;28;20596;-78
2023/01/21 11:41:11;;;;;;;11.77;8.48;;;4.50;99.90;;;;;;5082864;28;20267;-77
2023/01/21 11:43:51;;;;;;;10.97;8.90;;;4.50;99.90;;;;;;5061177;28;20359;-76
2023/01/21 11:46:25;;;;;;;11.05;8.80;;;4.50;99.90;;;;;;5052673;28;20633;-77
2023/01/21 11:49:16;;;;;;;12.60;10.10;;;4.50;99.90;;;;;;5050289;28;20321;-78
2023/01/21 11:51:44;;;;;;;12.57;8.13;;;4.50;99.90;;;;;;5084480;28;20179;-77
2023/01/21 11:54:19;;;;;;;12.45;8.18;;;4.50;99.90;;;;;;5080700;28;20255;-77
2023/01/21 11:56:55;;;;;;;10.38;8.70;;;4.50;99.90;;;;;;5070740;28;20196;-76
2023/01/21 11:59:30;;;;;;;12.73;9.73;;;4.60;99.90;;;;;;5076294;28;20177;-77
2023/01/21 12:02:11;;;;;;;12.57;10.05;;;4.60;99.90;;;;;;5058325;28;20200;-77
2023/01/21 12:04:41;;;;;;;14.23;9.90;;;4.60;99.90;;;;;;5072474;28;20201;-76
2023/01/21 12:07:16;;;;;;;11.43;8.10;;;4.60;99.90;;;;;;5075571;28;20570;-76
2023/01/21 12:09:48;;;;;;;9.50;6.95;;;4.60;99.90;;;;;;5074223;28;20634;-77
2023/01/21 12:12:25;;;;;;;10.68;7.78;;;4.60;99.90;;;;;;5084330;28;20527;-76
2023/01/21 12:14:55;;;;;;;9.05;7.10;;;4.60;99.90;;;;;;5060553;28;20566;-76
2023/01/21 12:17:35;;;;;;;10.13;7.40;;;4.70;99.90;;;;;;5077337;28;20559;-76
2023/01/21 12:20:07;;;;;;;9.63;7.40;;;4.80;99.90;;;;;;5076853;28;20184;-76
2023/01/21 12:22:49;;;;;;;9.13;7.18;;;4.80;99.90;;;;;;5057763;28;20207;-76
2023/01/21 12:25:40;;;;;;;8.13;5.85;;;4.90;99.90;;;;;;5088672;28;20549;-76
2023/01/21 12:28:43;;;;;;;9.50;7.35;;;4.90;99.90;;;;;;5082506;28;20234;-76
2023/01/21 12:31:35;;;;;;;7.53;5.97;;;5.00;99.90;;;;;;5081365;28;20178;-76
2023/01/21 12:34:32;;;;;;;8.75;6.18;;;5.00;99.90;;;;;;5077413;28;20164;-75
2023/01/21 12:37:10;;;;;;;10.70;7.32;;;5.10;99.90;;;;;;5051537;28;20222;-75
2023/01/21 12:39:36;;;;;;;8.38;6.45;;;5.20;99.90;;;;;;5051850;28;20180;-76
2023/01/21 12:42:13;;;;;;;8.70;6.85;;;5.10;99.90;;;;;;5051655;28;20676;-75
2023/01/21 12:44:47;;;;;;;8.05;5.78;;;5.20;99.90;;;;;;5069393;28;20221;-76
2023/01/21 12:47:20;;;;;;;7.82;5.68;;;5.20;99.90;;;;;;5051041;28;20270;-75
2023/01/21 12:50:23;;;;;;;7.75;5.95;;;5.20;99.90;;;;;;5052399;28;20176;-76
2023/01/21 12:53:17;;;;;;;7.45;6.05;;;5.10;99.90;;;;;;5026233;28;20188;-75
2023/01/21 12:56:00;;;;;;;6.95;5.80;;;5.20;99.90;;;;;;5052717;28;20256;-76
2023/01/21 12:58:41;;;;;;;6.40;5.30;;;5.20;99.90;;;;;;5052218;28;20191;-75
2023/01/21 13:01:14;;;;;;;8.68;6.60;;;5.20;99.90;;;;;;5069658;28;20571;-76
2023/01/21 13:04:14;;;;;;;7.82;5.90;;;5.20;99.90;;;;;;5052177;28;20187;-75
2023/01/21 13:06:45;;;;;;;9.77;7.70;;;5.30;99.90;;;;;;5069743;28;20315;-76
2023/01/21 13:09:20;;;;;;;8.50;6.72;;;5.30;99.90;;;;;;5069884;28;20200;-75